ATIS

Da Wikipedia, l'enciclopedia libera.

L'ATIS, acronimo di Automatic Terminal Information Service' è un sistema automatico di trasmissione delle informazioni generali utili al pilota riguardanti un aeroporto.

Esso viene trasmesso continuamente su frequenze dedicate o può essere associato alla portante di un VOR. Contiene informazioni meteorologiche e operative destinate ad essere utilizzate dai piloti che intendono utilizzare l'aeroporto da cui viene emesso l'ATIS.

Esso contiene:

I messaggi ATIS vengono aggiornati ogni 30 minuti o quando vi sono cambiamenti significativi dei parametri. Ad ogni nuova emissione viene assegnata una lettera, in ordine progressivo. Il pilota, dopo aver ascoltato l'ATIS, dovrà, al primo contatto con il controllore di avvicinamento e/o di torre, comunicare che è in possesso delle informazioni ATIS semplicemente ripetendo la lettera identificativa dell'ATIS in vigore in quel momento.

Esempio di un ATIS dell'aeroporto di Venezia Tessera (LIPZ)

« Venice Tessera information HOTEL recorded at 1037z

LIPZ 261020Z 29004KT 9999 FEW070 23/19 Q1008 ARR RWY 04R / DEP RWY 04R / TRL FL75 / TA 6000FT Confirm ATIS Info HOTEL on initial contact »

aviazione Portale Aviazione: accedi alle voci di Wikipedia che trattano di aviazione